Walcott, North Dakota
Current Conditions -  °F | °C
As of 12:31 PM on Sunday 23 Nov 2014 (Local Time) from KJKJ Reporting Station
Overcast Overcast  
Wind Chill:   Ceiling: 5000
Heat Index:   Visibility: 10mi
Dew Point:   Wind: 9mph
Humidity: 87%   Direction: 260°W
Pressure: 29.44"   Gusts: NA
Location:  46.55°N, 96.94°W
Report Text: KJKJ 231831Z AUTO 26008KT 10SM OVC050 06/04 A2944 RMK AO2
Loading
Personal Weather Stations






























Interactive Weather Map New forecast layout! Learn more

10-Day Weather Forecast

Advertisements
Track Severe Weather on mobile